createdAt,value
2022-12-01T00:01:07.723Z,75.06
2022-12-01T00:03:35.134Z,75.38
2022-12-01T00:06:04.691Z,75.77
2022-12-01T00:08:32.455Z,76.57
2022-12-01T00:11:06.978Z,77.40
2022-12-01T00:13:34.438Z,76.89
2022-12-01T00:16:11.975Z,75.08
2022-12-01T00:18:39.278Z,74.82
2022-12-01T00:21:14.284Z,75.17
2022-12-01T00:23:49.328Z,75.57
2022-12-01T00:26:17.008Z,76.08
2022-12-01T00:28:44.194Z,76.98
2022-12-01T00:31:12.228Z,78.01
2022-12-01T00:33:39.638Z,78.60
2022-12-01T00:36:08.272Z,78.63
2022-12-01T00:38:35.530Z,76.93
2022-12-01T00:41:03.180Z,74.67
2022-12-01T00:43:30.639Z,73.79
2022-12-01T00:45:58.200Z,74.09
2022-12-01T00:48:25.654Z,74.60
2022-12-01T00:50:53.321Z,75.13
2022-12-01T00:53:20.874Z,75.50
2022-12-01T00:55:48.228Z,76.45
2022-12-01T00:58:15.479Z,77.44
2022-12-01T01:00:42.570Z,79.42
2022-12-01T01:03:10.288Z,78.50
2022-12-01T01:05:38.356Z,76.18
2022-12-01T01:08:07.314Z,74.77
2022-12-01T01:10:39.112Z,74.53
2022-12-01T01:13:06.196Z,74.55
2022-12-01T01:15:34.233Z,75.16
2022-12-01T01:18:01.788Z,75.60
2022-12-01T01:20:29.346Z,75.61
2022-12-01T01:22:56.914Z,76.05
2022-12-01T01:25:24.301Z,76.36
2022-12-01T01:27:51.512Z,75.55
2022-12-01T01:30:21.128Z,73.56
2022-12-01T01:32:48.601Z,72.89
2022-12-01T01:35:16.131Z,72.68
2022-12-01T01:37:44.356Z,72.80
2022-12-01T01:40:12.164Z,73.59
2022-12-01T01:42:39.430Z,74.12
2022-12-01T01:45:19.069Z,74.21
2022-12-01T01:47:46.831Z,74.48
2022-12-01T01:50:15.417Z,74.90
2022-12-01T01:52:48.279Z,75.09
2022-12-01T01:55:15.412Z,75.49
2022-12-01T01:57:42.798Z,75.28
2022-12-01T02:00:13.191Z,73.41
2022-12-01T02:02:44.932Z,71.39
2022-12-01T02:05:15.003Z,72.04
2022-12-01T02:07:42.011Z,72.20
2022-12-01T02:10:10.749Z,71.96
2022-12-01T02:12:59.745Z,72.66
2022-12-01T02:15:50.294Z,72.63
2022-12-01T02:18:30.148Z,73.33
2022-12-01T02:21:12.856Z,73.74
2022-12-01T02:24:11.440Z,74.26
2022-12-01T02:26:44.548Z,74.75
2022-12-01T02:29:46.520Z,74.76
2022-12-01T02:32:33.307Z,75.50
2022-12-01T02:35:00.768Z,72.53
2022-12-01T02:37:33.013Z,70.86
2022-12-01T02:40:19.637Z,70.12
2022-12-01T02:42:49.354Z,70.57
2022-12-01T02:45:23.838Z,72.45
2022-12-01T02:47:52.035Z,73.60
2022-12-01T02:50:20.254Z,74.02
2022-12-01T02:52:47.673Z,75.34
2022-12-01T02:55:14.722Z,76.64
2022-12-01T02:57:41.970Z,78.09
2022-12-01T03:00:13.217Z,78.37
2022-12-01T03:02:51.209Z,76.25
2022-12-01T03:12:47.831Z,77.49
2022-12-01T03:15:30.554Z,78.50
2022-12-01T03:18:07.418Z,79.70
2022-12-01T03:21:01.259Z,80.47
2022-12-01T03:23:30.592Z,78.18
2022-12-01T03:25:58.335Z,76.34
2022-12-01T03:28:29.166Z,76.88
2022-12-01T03:30:59.523Z,78.21
2022-12-01T03:33:33.371Z,78.46
2022-12-01T03:36:08.026Z,78.91
2022-12-01T03:38:36.404Z,79.97
2022-12-01T03:41:08.285Z,80.30
2022-12-01T03:43:37.063Z,80.39
2022-12-01T03:46:23.682Z,80.36
2022-12-01T03:48:53.168Z,78.99
2022-12-01T03:51:56.765Z,77.46
2022-12-01T03:54:29.783Z,79.48
2022-12-01T03:56:59.767Z,79.44
2022-12-01T03:59:27.028Z,79.09
2022-12-01T04:01:54.471Z,79.11
2022-12-01T04:04:22.251Z,79.73
2022-12-01T04:06:50.621Z,81.56
2022-12-01T04:09:17.907Z,80.29
2022-12-01T04:12:03.977Z,79.25
2022-12-01T04:14:31.046Z,78.70
2022-12-01T04:16:58.195Z,78.81
2022-12-01T04:19:25.310Z,78.60
2022-12-01T04:21:52.572Z,79.85
2022-12-01T04:24:19.723Z,80.93
2022-12-01T04:26:46.861Z,81.76
2022-12-01T04:29:14.144Z,80.71
2022-12-01T04:31:41.431Z,78.34
2022-12-01T04:34:10.153Z,77.18
2022-12-01T04:36:37.310Z,77.43
2022-12-01T04:39:04.756Z,78.73
2022-12-01T04:41:32.220Z,79.04
2022-12-01T04:43:59.481Z,80.42
2022-12-01T04:46:26.898Z,80.92
2022-12-01T04:48:54.284Z,81.87
2022-12-01T04:51:22.583Z,81.53
2022-12-01T04:53:50.554Z,79.15
2022-12-01T04:56:17.874Z,78.06
2022-12-01T04:58:45.077Z,77.08
2022-12-01T05:01:13.195Z,77.20
2022-12-01T05:03:42.111Z,78.34
2022-12-01T05:06:17.410Z,80.19
2022-12-01T05:08:44.616Z,81.18
2022-12-01T05:11:12.762Z,82.39
2022-12-01T05:13:40.455Z,81.77
2022-12-01T05:16:09.038Z,79.75
2022-12-01T05:18:36.644Z,78.54
2022-12-01T05:21:04.548Z,78.60
2022-12-01T05:23:33.313Z,79.22
2022-12-01T05:26:00.768Z,80.93
2022-12-01T05:28:28.336Z,82.16
2022-12-01T05:30:55.683Z,82.59
2022-12-01T05:33:23.577Z,82.35
2022-12-01T05:35:50.908Z,81.27
2022-12-01T05:38:18.566Z,81.75
2022-12-01T05:40:53.208Z,81.61
2022-12-01T05:43:26.871Z,82.71
2022-12-01T05:45:56.601Z,82.76
2022-12-01T05:48:24.159Z,83.36
2022-12-01T05:50:51.373Z,82.58
2022-12-01T05:53:19.282Z,79.80
2022-12-01T05:55:47.161Z,78.77
2022-12-01T05:58:14.293Z,79.62
2022-12-01T06:00:45.766Z,80.25
2022-12-01T06:03:14.250Z,81.43
2022-12-01T06:05:41.474Z,81.74
2022-12-01T06:08:08.834Z,82.42
2022-12-01T06:10:36.080Z,82.20
2022-12-01T06:13:03.390Z,80.22
2022-12-01T06:15:30.508Z,78.67
2022-12-01T06:18:00.908Z,77.92
2022-12-01T06:20:28.366Z,77.97
2022-12-01T06:22:55.617Z,78.13
2022-12-01T06:25:22.869Z,78.92
2022-12-01T06:27:50.138Z,80.26
2022-12-01T06:30:17.678Z,81.80
2022-12-01T06:32:44.932Z,81.55
2022-12-01T06:35:12.632Z,79.42
2022-12-01T06:37:39.852Z,79.10
2022-12-01T06:40:07.927Z,78.57
2022-12-01T06:42:35.164Z,79.35
2022-12-01T06:45:02.425Z,80.28
2022-12-01T06:47:29.568Z,80.99
2022-12-01T06:49:56.818Z,81.24
2022-12-01T06:52:24.002Z,82.30
2022-12-01T06:54:51.326Z,81.41
2022-12-01T06:57:18.911Z,78.84
2022-12-01T06:59:46.573Z,77.33
2022-12-01T07:02:14.330Z,77.37
2022-12-01T07:04:41.586Z,78.78
2022-12-01T07:07:08.692Z,80.11
2022-12-01T07:09:35.808Z,80.82
2022-12-01T07:12:03.010Z,81.63
2022-12-01T07:14:31.839Z,81.96
2022-12-01T07:16:59.296Z,80.57
2022-12-01T07:19:26.610Z,77.98
2022-12-01T07:21:53.882Z,77.62
2022-12-01T07:24:21.108Z,77.79
2022-12-01T07:26:48.576Z,78.28
2022-12-01T07:29:15.638Z,78.47
2022-12-01T07:31:42.746Z,79.13
2022-12-01T07:34:13.549Z,79.69
2022-12-01T07:36:40.747Z,79.90
2022-12-01T07:39:08.412Z,80.47
2022-12-01T07:41:35.719Z,79.29
2022-12-01T07:44:03.647Z,77.61
2022-12-01T07:46:30.788Z,77.39
2022-12-01T07:48:58.062Z,76.91
2022-12-01T07:51:25.794Z,77.27
2022-12-01T07:53:53.874Z,78.55
2022-12-01T07:56:21.209Z,79.08
2022-12-01T07:58:48.477Z,79.57
2022-12-01T08:01:17.761Z,79.92
2022-12-01T08:03:45.228Z,77.90
2022-12-01T08:06:13.385Z,75.65
2022-12-01T08:08:41.309Z,74.88
2022-12-01T08:11:11.908Z,74.74
2022-12-01T08:13:39.879Z,75.51
2022-12-01T08:16:08.333Z,75.79
2022-12-01T08:18:36.526Z,77.26
2022-12-01T08:21:06.278Z,78.79
2022-12-01T08:23:33.481Z,79.15
2022-12-01T08:26:05.245Z,78.43
2022-12-01T08:28:32.798Z,75.21
2022-12-01T08:31:00.138Z,73.25
2022-12-01T08:33:27.418Z,71.87
2022-12-01T08:35:55.985Z,72.55
2022-12-01T08:38:25.902Z,73.81
2022-12-01T08:40:56.492Z,74.88
2022-12-01T08:43:49.616Z,74.35
2022-12-01T08:46:14.323Z,75.49
2022-12-01T08:48:41.636Z,75.72
2022-12-01T08:51:11.332Z,75.48
2022-12-01T08:53:45.135Z,76.13
2022-12-01T08:56:18.365Z,75.99
2022-12-01T08:58:45.799Z,76.83
2022-12-01T09:01:15.046Z,74.57
2022-12-01T09:03:42.593Z,73.03
2022-12-01T09:06:14.970Z,71.96
2022-12-01T09:08:42.588Z,71.40
2022-12-01T09:11:15.169Z,72.05
2022-12-01T09:13:42.762Z,72.42
2022-12-01T09:16:15.047Z,72.23
2022-12-01T09:18:45.832Z,73.51
2022-12-01T09:21:16.255Z,73.59
2022-12-01T09:23:44.952Z,72.04
2022-12-01T09:26:13.741Z,71.92
2022-12-01T09:28:41.086Z,72.12
2022-12-01T09:31:10.004Z,72.06
2022-12-01T09:33:37.536Z,71.39
2022-12-01T09:36:05.938Z,71.15
2022-12-01T09:38:34.310Z,71.26
2022-12-01T09:41:06.975Z,70.15
2022-12-01T09:43:40.785Z,69.04
2022-12-01T09:46:09.692Z,69.44
2022-12-01T09:48:43.042Z,67.88
2022-12-01T09:51:14.182Z,68.44
2022-12-01T09:53:41.430Z,68.84
2022-12-01T09:56:22.648Z,69.93
2022-12-01T09:58:53.670Z,68.35
2022-12-01T10:01:26.979Z,68.95
2022-12-01T10:03:57.287Z,68.11
2022-12-01T10:07:03.503Z,65.61
2022-12-01T10:09:38.899Z,65.29
2022-12-01T10:12:19.669Z,65.66
2022-12-01T10:14:47.943Z,65.16
2022-12-01T10:17:40.387Z,64.59
2022-12-01T10:20:23.081Z,64.39
2022-12-01T10:22:50.967Z,64.18
2022-12-01T10:25:25.148Z,64.68
2022-12-01T10:28:22.976Z,63.08
2022-12-01T10:30:51.757Z,61.40
2022-12-01T10:33:36.073Z,62.97
2022-12-01T10:36:03.559Z,65.83
2022-12-01T10:38:33.241Z,66.82
2022-12-01T10:41:01.446Z,65.87
2022-12-01T10:43:33.660Z,65.64
2022-12-01T10:46:03.354Z,65.26
2022-12-01T10:48:31.092Z,65.96
2022-12-01T10:51:15.749Z,66.97
2022-12-01T10:53:43.202Z,65.93
2022-12-01T10:56:14.967Z,65.55
2022-12-01T10:58:57.800Z,65.50
2022-12-01T11:01:32.315Z,64.79
2022-12-01T11:04:21.397Z,66.21
2022-12-01T11:06:50.456Z,66.04
2022-12-01T11:09:26.402Z,66.41
2022-12-01T11:12:01.855Z,67.76
2022-12-01T11:14:50.615Z,67.90
2022-12-01T11:17:24.217Z,68.98
2022-12-01T11:19:53.946Z,68.30
2022-12-01T11:22:34.802Z,67.96
2022-12-01T11:25:04.402Z,67.25
2022-12-01T11:27:52.164Z,67.20
2022-12-01T11:30:27.283Z,68.12
2022-12-01T11:32:57.183Z,68.71
2022-12-01T11:35:26.468Z,68.91
2022-12-01T11:38:29.382Z,68.96
2022-12-01T11:40:49.201Z,70.52
2022-12-01T11:43:27.558Z,70.64
2022-12-01T11:45:55.166Z,70.70
2022-12-01T11:48:27.821Z,71.31
2022-12-01T11:51:21.547Z,72.47
2022-12-01T11:53:49.447Z,71.76
2022-12-01T11:56:20.313Z,72.19
2022-12-01T11:58:50.958Z,71.47
2022-12-01T12:01:46.063Z,69.02
2022-12-01T12:04:37.023Z,67.29
2022-12-01T12:07:26.443Z,67.43
2022-12-01T12:10:07.520Z,67.40
2022-12-01T12:12:58.073Z,68.35
2022-12-01T12:15:55.425Z,68.20
2022-12-01T12:18:48.581Z,68.65
2022-12-01T12:21:33.132Z,68.89
2022-12-01T12:24:06.843Z,69.76
2022-12-01T12:27:00.819Z,69.12
2022-12-01T12:29:28.178Z,69.22
2022-12-01T12:32:08.223Z,69.29
2022-12-01T12:34:54.226Z,69.02
2022-12-01T12:37:29.557Z,68.64
2022-12-01T12:40:28.352Z,70.04
2022-12-01T12:43:15.568Z,70.65
2022-12-01T12:46:01.819Z,70.95
2022-12-01T12:49:18.204Z,71.13
2022-12-01T12:51:47.162Z,70.94
2022-12-01T12:54:31.594Z,70.62
2022-12-01T12:57:09.722Z,70.79
2022-12-01T12:59:42.504Z,69.21
2022-12-01T13:02:12.864Z,67.47
2022-12-01T13:04:52.676Z,66.64
2022-12-01T13:07:44.254Z,66.61
2022-12-01T13:10:23.547Z,67.61
2022-12-01T13:13:18.942Z,68.53
2022-12-01T13:15:47.200Z,69.41
2022-12-01T13:18:48.899Z,69.44
2022-12-01T13:21:22.972Z,69.84
2022-12-01T13:23:51.471Z,71.15
2022-12-01T13:26:20.104Z,72.22
2022-12-01T13:28:56.223Z,72.78
2022-12-01T13:31:23.810Z,72.87
2022-12-01T13:33:59.830Z,73.21
2022-12-01T13:39:22.395Z,69.96
2022-12-01T13:42:27.532Z,70.10
2022-12-01T13:45:18.544Z,69.89
2022-12-01T13:47:53.342Z,69.99
2022-12-01T13:50:48.989Z,70.53
2022-12-01T13:53:19.823Z,71.67
2022-12-01T13:56:03.369Z,72.00
2022-12-01T13:58:34.498Z,74.21
2022-12-01T14:01:21.124Z,74.47
2022-12-01T14:03:56.940Z,75.54
2022-12-01T14:06:27.791Z,76.35
2022-12-01T14:09:06.486Z,75.51
2022-12-01T14:11:34.586Z,73.61
2022-12-01T14:14:12.487Z,72.33
2022-12-01T14:17:02.477Z,73.26
2022-12-01T14:19:52.461Z,73.10
2022-12-01T14:22:44.491Z,74.14
2022-12-01T14:25:30.010Z,74.87
2022-12-01T14:28:01.168Z,75.69
2022-12-01T14:30:55.840Z,76.13
2022-12-01T14:33:47.843Z,76.32
2022-12-01T14:36:24.614Z,77.05
2022-12-01T14:38:58.523Z,75.90
2022-12-01T14:41:56.393Z,73.98
2022-12-01T14:44:31.826Z,73.28
2022-12-01T14:47:07.184Z,73.83
2022-12-01T14:50:10.530Z,75.11
2022-12-01T14:52:40.593Z,76.04
2022-12-01T14:55:33.134Z,76.37
2022-12-01T14:58:17.697Z,77.21
2022-12-01T15:01:12.033Z,77.38
2022-12-01T15:03:42.999Z,78.65
2022-12-01T15:06:10.477Z,79.18
2022-12-01T15:08:49.163Z,77.64
2022-12-01T15:11:26.174Z,75.13
2022-12-01T15:13:55.017Z,74.72
2022-12-01T15:16:29.279Z,74.72
2022-12-01T15:19:36.467Z,75.28
2022-12-01T15:22:16.213Z,76.13
2022-12-01T15:24:45.720Z,76.62
2022-12-01T15:27:31.027Z,77.19
2022-12-01T15:30:04.918Z,78.28
2022-12-01T15:32:33.585Z,78.66
2022-12-01T15:35:05.753Z,78.37
2022-12-01T15:37:51.544Z,76.29
2022-12-01T15:43:17.686Z,75.64
2022-12-01T15:45:59.247Z,76.37
2022-12-01T15:48:34.818Z,76.97
2022-12-01T15:51:16.815Z,77.89
2022-12-01T15:53:55.988Z,78.43
2022-12-01T15:56:29.312Z,79.44
2022-12-01T15:59:18.672Z,79.90
2022-12-01T16:01:46.104Z,79.97
2022-12-01T16:04:18.593Z,78.37
2022-12-01T16:07:02.891Z,76.94
2022-12-01T16:09:44.378Z,76.99
2022-12-01T16:12:15.323Z,77.72
2022-12-01T16:14:50.111Z,77.88
2022-12-01T16:17:17.907Z,78.50
2022-12-01T16:19:45.990Z,78.92
2022-12-01T16:22:18.252Z,79.38
2022-12-01T16:24:54.135Z,78.00
2022-12-01T16:27:22.889Z,76.84
2022-12-01T16:29:52.726Z,76.92
2022-12-01T16:32:39.848Z,77.14
2022-12-01T16:35:29.701Z,77.75
2022-12-01T16:37:58.188Z,78.25
2022-12-01T16:40:25.636Z,78.83
2022-12-01T16:42:53.124Z,79.30
2022-12-01T16:45:20.656Z,79.79
2022-12-01T16:47:49.952Z,79.37
2022-12-01T16:50:18.888Z,77.91
2022-12-01T16:52:46.911Z,77.42
2022-12-01T16:55:38.558Z,77.57
2022-12-01T16:58:06.197Z,77.97
2022-12-01T17:00:35.229Z,78.74
2022-12-01T17:03:02.711Z,79.23
2022-12-01T17:05:30.305Z,79.73
2022-12-01T17:07:57.823Z,80.40
2022-12-01T17:10:25.324Z,80.80
2022-12-01T17:12:52.780Z,80.40
2022-12-01T17:15:20.457Z,78.94
2022-12-01T17:17:48.024Z,77.66
2022-12-01T17:20:15.692Z,77.04
2022-12-01T17:22:43.231Z,77.30
2022-12-01T17:25:10.787Z,78.03
2022-12-01T17:27:38.657Z,78.30
2022-12-01T17:30:07.285Z,79.32
2022-12-01T17:32:34.714Z,80.30
2022-12-01T17:35:02.243Z,81.14
2022-12-01T17:37:29.699Z,82.34
2022-12-01T17:39:57.236Z,82.10
2022-12-01T17:42:24.921Z,80.56
2022-12-01T17:44:52.482Z,79.51
2022-12-01T17:47:20.140Z,79.02
2022-12-01T17:49:50.229Z,79.16
2022-12-01T17:52:17.752Z,79.88
2022-12-01T17:54:46.095Z,80.35
2022-12-01T17:57:13.597Z,80.80
2022-12-01T17:59:41.323Z,81.93
2022-12-01T18:02:12.178Z,82.15
2022-12-01T18:04:39.826Z,83.01
2022-12-01T18:07:07.377Z,83.01
2022-12-01T18:09:34.834Z,81.40
2022-12-01T18:12:02.388Z,80.00
2022-12-01T18:14:30.970Z,79.67
2022-12-01T18:16:58.630Z,80.44
2022-12-01T18:19:27.008Z,81.69
2022-12-01T18:21:54.472Z,82.80
2022-12-01T18:24:22.024Z,84.30
2022-12-01T18:26:49.582Z,84.97
2022-12-01T18:29:26.381Z,83.40
2022-12-01T18:31:55.428Z,81.20
2022-12-01T18:34:23.011Z,80.65
2022-12-01T18:36:50.568Z,80.86
2022-12-01T18:39:18.130Z,81.83
2022-12-01T18:41:45.588Z,83.18
2022-12-01T18:44:13.074Z,84.33
2022-12-01T18:46:40.542Z,84.64
2022-12-01T18:49:09.498Z,82.26
2022-12-01T18:51:37.717Z,81.57
2022-12-01T18:54:06.311Z,81.68
2022-12-01T18:56:34.461Z,81.86
2022-12-01T18:59:03.913Z,82.57
2022-12-01T19:01:33.458Z,83.18
2022-12-01T19:04:01.194Z,84.25
2022-12-01T19:06:29.365Z,84.93
2022-12-01T19:08:59.634Z,84.26
2022-12-01T19:11:27.355Z,81.63
2022-12-01T19:13:56.330Z,80.49
2022-12-01T19:16:24.542Z,80.12
2022-12-01T19:18:53.511Z,81.30
2022-12-01T19:21:21.582Z,82.61
2022-12-01T19:23:50.162Z,82.74
2022-12-01T19:26:19.470Z,83.64
2022-12-01T19:28:47.125Z,84.06
2022-12-01T19:31:16.641Z,85.00
2022-12-01T19:33:44.803Z,83.88
2022-12-01T19:36:17.918Z,82.03
2022-12-01T19:38:45.552Z,80.33
2022-12-01T19:41:14.443Z,79.97
2022-12-01T19:43:42.820Z,81.09
2022-12-01T19:46:12.856Z,82.25
2022-12-01T19:48:40.403Z,82.09
2022-12-01T19:51:07.962Z,83.59
2022-12-01T19:53:35.520Z,84.02
2022-12-01T19:56:03.741Z,83.30
2022-12-01T19:58:35.145Z,81.46
2022-12-01T20:01:07.067Z,79.68
2022-12-01T20:03:34.760Z,79.69
2022-12-01T20:06:07.739Z,79.98
2022-12-01T20:08:36.101Z,81.64
2022-12-01T20:11:04.714Z,81.97
2022-12-01T20:13:33.337Z,82.35
2022-12-01T20:16:11.290Z,83.33
2022-12-01T20:18:39.466Z,84.27
2022-12-01T20:21:17.747Z,84.96
2022-12-01T20:23:47.629Z,84.46
2022-12-01T20:26:15.970Z,82.38
2022-12-01T20:28:45.500Z,80.28
2022-12-01T20:31:24.120Z,80.00
2022-12-01T20:33:52.675Z,79.82
2022-12-01T20:36:20.342Z,80.36
2022-12-01T20:38:48.098Z,81.54
2022-12-01T20:41:15.970Z,81.64
2022-12-01T20:43:43.420Z,82.58
2022-12-01T20:46:11.690Z,83.88
2022-12-01T20:48:39.268Z,83.99
2022-12-01T20:51:07.224Z,82.18
2022-12-01T20:53:35.553Z,80.44
2022-12-01T20:56:06.469Z,79.81
2022-12-01T20:58:37.541Z,79.98
2022-12-01T21:01:14.397Z,81.63
2022-12-01T21:03:42.898Z,83.45
2022-12-01T21:06:11.432Z,84.07
2022-12-01T21:08:39.901Z,84.48
2022-12-01T21:11:09.612Z,85.18
2022-12-01T21:13:39.935Z,84.90
2022-12-01T21:16:17.386Z,82.41
2022-12-01T21:18:56.094Z,81.18
2022-12-01T21:21:25.762Z,81.10
2022-12-01T21:24:08.585Z,81.94
2022-12-01T21:26:37.365Z,82.19
2022-12-01T21:29:13.419Z,82.15
2022-12-01T21:31:40.871Z,82.70
2022-12-01T21:34:18.260Z,82.85
2022-12-01T21:36:48.386Z,83.77
2022-12-01T21:39:18.148Z,84.88
2022-12-01T21:41:45.649Z,84.92
2022-12-01T21:44:18.158Z,82.90
2022-12-01T21:46:46.398Z,81.86
2022-12-01T21:49:22.557Z,81.77
2022-12-01T21:51:51.141Z,83.31
2022-12-01T21:54:20.749Z,84.40
2022-12-01T21:56:52.924Z,84.96
2022-12-01T21:59:22.326Z,85.42
2022-12-01T22:01:53.654Z,85.66
2022-12-01T22:04:26.657Z,83.91
2022-12-01T22:06:55.340Z,81.60
2022-12-01T22:09:34.823Z,81.26
2022-12-01T22:12:41.044Z,81.64
2022-12-01T22:15:14.232Z,82.29
2022-12-01T22:17:45.847Z,82.84
2022-12-01T22:20:22.045Z,83.90
2022-12-01T22:22:49.509Z,84.50
2022-12-01T22:25:28.464Z,84.15
2022-12-01T22:27:58.655Z,81.58
2022-12-01T22:30:26.208Z,80.21
2022-12-01T22:32:57.407Z,79.85
2022-12-01T22:35:27.524Z,80.04
2022-12-01T22:37:55.133Z,80.41
2022-12-01T22:40:32.010Z,82.03
2022-12-01T22:43:29.591Z,83.08
2022-12-01T22:46:00.106Z,83.90
2022-12-01T22:48:27.679Z,82.77
2022-12-01T22:50:55.431Z,80.67
2022-12-01T22:53:29.855Z,79.67
2022-12-01T22:55:58.270Z,80.43
2022-12-01T22:58:32.909Z,81.31
2022-12-01T23:01:28.695Z,82.17
2022-12-01T23:04:20.087Z,83.31
2022-12-01T23:07:08.328Z,83.45
2022-12-01T23:09:42.669Z,84.61
2022-12-01T23:12:10.206Z,83.51
2022-12-01T23:14:46.060Z,81.18
2022-12-01T23:17:25.598Z,79.89
2022-12-01T23:19:55.955Z,79.46
2022-12-01T23:22:23.378Z,80.40
2022-12-01T23:24:51.003Z,80.52
2022-12-01T23:27:18.702Z,80.45
2022-12-01T23:29:48.201Z,82.04
2022-12-01T23:32:15.662Z,83.48
2022-12-01T23:34:43.119Z,82.23
2022-12-01T23:37:23.281Z,79.68
2022-12-01T23:39:50.728Z,78.89
2022-12-01T23:42:18.186Z,79.35
2022-12-01T23:44:46.260Z,80.21
2022-12-01T23:47:20.161Z,80.51
2022-12-01T23:49:47.933Z,81.04
2022-12-01T23:52:20.059Z,81.49
2022-12-01T23:54:47.829Z,82.46
2022-12-01T23:57:24.401Z,81.77
2022-12-01T23:59:55.425Z,79.10
